sensor_id;sensor_type;location;lat;lon;timestamp;temperature;humidity
74294;DHT22;64044;59.904;10.738;2024-01-30T00:02:22;3.30;77.20
74294;DHT22;64044;59.904;10.738;2024-01-30T00:04:48;3.30;77.10
74294;DHT22;64044;59.904;10.738;2024-01-30T00:07:13;3.30;77.10
74294;DHT22;64044;59.904;10.738;2024-01-30T00:09:39;3.40;77.10
74294;DHT22;64044;59.904;10.738;2024-01-30T00:12:06;3.40;77.20
74294;DHT22;64044;59.904;10.738;2024-01-30T00:14:32;3.30;77.10
74294;DHT22;64044;59.904;10.738;2024-01-30T00:16:57;3.40;77.10
74294;DHT22;64044;59.904;10.738;2024-01-30T00:19:23;3.30;77.10
74294;DHT22;64044;59.904;10.738;2024-01-30T00:21:49;3.30;77.10
74294;DHT22;64044;59.904;10.738;2024-01-30T00:24:15;3.30;77.20
74294;DHT22;64044;59.904;10.738;2024-01-30T00:26:40;3.30;77.10
74294;DHT22;64044;59.904;10.738;2024-01-30T00:29:06;3.40;77.10
74294;DHT22;64044;59.904;10.738;2024-01-30T00:31:32;3.30;77.00
74294;DHT22;64044;59.904;10.738;2024-01-30T00:33:58;3.40;77.00
74294;DHT22;64044;59.904;10.738;2024-01-30T00:36:23;3.40;77.00
74294;DHT22;64044;59.904;10.738;2024-01-30T00:38:49;3.40;77.00
74294;DHT22;64044;59.904;10.738;2024-01-30T00:41:17;3.40;77.00
74294;DHT22;64044;59.904;10.738;2024-01-30T00:43:43;3.30;77.00
74294;DHT22;64044;59.904;10.738;2024-01-30T00:46:09;3.30;77.00
74294;DHT22;64044;59.904;10.738;2024-01-30T00:48:35;3.30;77.00
74294;DHT22;64044;59.904;10.738;2024-01-30T00:51:00;3.30;77.10
74294;DHT22;64044;59.904;10.738;2024-01-30T00:53:26;3.30;77.10
74294;DHT22;64044;59.904;10.738;2024-01-30T00:55:52;3.30;77.10
74294;DHT22;64044;59.904;10.738;2024-01-30T00:58:18;3.30;77.10
74294;DHT22;64044;59.904;10.738;2024-01-30T01:00:44;3.30;77.10
74294;DHT22;64044;59.904;10.738;2024-01-30T01:03:10;3.30;77.20
74294;DHT22;64044;59.904;10.738;2024-01-30T01:05:36;3.30;77.20
74294;DHT22;64044;59.904;10.738;2024-01-30T01:08:02;3.20;77.20
74294;DHT22;64044;59.904;10.738;2024-01-30T01:10:27;3.20;77.10
74294;DHT22;64044;59.904;10.738;2024-01-30T01:12:54;3.30;77.20
74294;DHT22;64044;59.904;10.738;2024-01-30T01:15:19;3.30;77.40
74294;DHT22;64044;59.904;10.738;2024-01-30T01:17:45;3.20;77.30
74294;DHT22;64044;59.904;10.738;2024-01-30T01:20:11;3.30;78.10
74294;DHT22;64044;59.904;10.738;2024-01-30T01:22:38;3.30;77.40
74294;DHT22;64044;59.904;10.738;2024-01-30T01:25:07;3.30;77.40
74294;DHT22;64044;59.904;10.738;2024-01-30T01:27:33;3.30;77.50
74294;DHT22;64044;59.904;10.738;2024-01-30T01:30:00;3.30;77.40
74294;DHT22;64044;59.904;10.738;2024-01-30T01:32:26;3.30;77.40
74294;DHT22;64044;59.904;10.738;2024-01-30T01:34:51;3.30;77.40
74294;DHT22;64044;59.904;10.738;2024-01-30T01:37:17;3.30;77.50
74294;DHT22;64044;59.904;10.738;2024-01-30T01:39:43;3.30;77.50
74294;DHT22;64044;59.904;10.738;2024-01-30T01:42:09;3.30;77.50
74294;DHT22;64044;59.904;10.738;2024-01-30T01:44:35;3.30;77.40
74294;DHT22;64044;59.904;10.738;2024-01-30T01:47:00;3.30;77.40
74294;DHT22;64044;59.904;10.738;2024-01-30T01:49:27;3.30;77.40
74294;DHT22;64044;59.904;10.738;2024-01-30T01:51:55;3.30;77.30
74294;DHT22;64044;59.904;10.738;2024-01-30T01:54:22;3.30;77.20
74294;DHT22;64044;59.904;10.738;2024-01-30T01:56:49;3.40;77.30
74294;DHT22;64044;59.904;10.738;2024-01-30T01:59:17;3.30;77.30
74294;DHT22;64044;59.904;10.738;2024-01-30T02:01:43;3.40;77.30
74294;DHT22;64044;59.904;10.738;2024-01-30T02:04:11;3.40;77.30
74294;DHT22;64044;59.904;10.738;2024-01-30T02:06:37;3.30;77.20
74294;DHT22;64044;59.904;10.738;2024-01-30T02:09:04;3.30;77.20
74294;DHT22;64044;59.904;10.738;2024-01-30T02:11:30;3.30;77.20
74294;DHT22;64044;59.904;10.738;2024-01-30T02:13:57;3.30;77.20
74294;DHT22;64044;59.904;10.738;2024-01-30T02:16:27;3.30;77.20
74294;DHT22;64044;59.904;10.738;2024-01-30T02:18:53;3.30;77.20
74294;DHT22;64044;59.904;10.738;2024-01-30T02:21:19;3.30;77.20
74294;DHT22;64044;59.904;10.738;2024-01-30T02:23:46;3.30;77.20
74294;DHT22;64044;59.904;10.738;2024-01-30T02:26:12;3.30;77.20
74294;DHT22;64044;59.904;10.738;2024-01-30T02:28:38;3.30;77.20
74294;DHT22;64044;59.904;10.738;2024-01-30T02:31:04;3.30;77.10
74294;DHT22;64044;59.904;10.738;2024-01-30T02:33:30;3.30;77.10
74294;DHT22;64044;59.904;10.738;2024-01-30T02:35:56;3.30;77.00
74294;DHT22;64044;59.904;10.738;2024-01-30T02:38:22;3.30;77.10
74294;DHT22;64044;59.904;10.738;2024-01-30T02:40:49;3.20;77.00
74294;DHT22;64044;59.904;10.738;2024-01-30T02:43:16;3.20;77.00
74294;DHT22;64044;59.904;10.738;2024-01-30T02:45:42;3.20;77.00
74294;DHT22;64044;59.904;10.738;2024-01-30T02:48:07;3.20;77.00
74294;DHT22;64044;59.904;10.738;2024-01-30T02:50:33;3.20;77.10
74294;DHT22;64044;59.904;10.738;2024-01-30T02:52:59;3.20;77.10
74294;DHT22;64044;59.904;10.738;2024-01-30T02:55:25;3.20;77.10
74294;DHT22;64044;59.904;10.738;2024-01-30T02:57:51;3.20;77.20
74294;DHT22;64044;59.904;10.738;2024-01-30T03:00:17;3.10;77.20
74294;DHT22;64044;59.904;10.738;2024-01-30T03:02:42;3.10;77.30
74294;DHT22;64044;59.904;10.738;2024-01-30T03:05:08;3.20;77.50
74294;DHT22;64044;59.904;10.738;2024-01-30T03:07:34;3.20;77.40
74294;DHT22;64044;59.904;10.738;2024-01-30T03:10:00;3.10;77.40
74294;DHT22;64044;59.904;10.738;2024-01-30T03:12:26;3.20;77.50
74294;DHT22;64044;59.904;10.738;2024-01-30T03:14:51;3.10;77.50
74294;DHT22;64044;59.904;10.738;2024-01-30T03:17:18;3.10;77.60
74294;DHT22;64044;59.904;10.738;2024-01-30T03:19:43;3.20;77.70
74294;DHT22;64044;59.904;10.738;2024-01-30T03:22:09;3.10;77.60
74294;DHT22;64044;59.904;10.738;2024-01-30T03:24:35;3.20;77.80
74294;DHT22;64044;59.904;10.738;2024-01-30T03:27:01;3.20;77.70
74294;DHT22;64044;59.904;10.738;2024-01-30T03:29:27;3.20;77.80
74294;DHT22;64044;59.904;10.738;2024-01-30T03:31:52;3.20;77.80
74294;DHT22;64044;59.904;10.738;2024-01-30T03:34:18;3.20;77.80
74294;DHT22;64044;59.904;10.738;2024-01-30T03:36:44;3.20;77.70
74294;DHT22;64044;59.904;10.738;2024-01-30T03:39:09;3.20;77.80
74294;DHT22;64044;59.904;10.738;2024-01-30T03:41:35;3.20;77.70
74294;DHT22;64044;59.904;10.738;2024-01-30T03:44:01;3.20;77.70
74294;DHT22;64044;59.904;10.738;2024-01-30T03:46:27;3.20;77.60
74294;DHT22;64044;59.904;10.738;2024-01-30T03:48:53;3.20;77.70
74294;DHT22;64044;59.904;10.738;2024-01-30T03:51:19;3.20;77.70
74294;DHT22;64044;59.904;10.738;2024-01-30T03:53:45;3.20;77.70
74294;DHT22;64044;59.904;10.738;2024-01-30T03:56:12;3.20;77.70
74294;DHT22;64044;59.904;10.738;2024-01-30T03:58:41;3.20;77.70
74294;DHT22;64044;59.904;10.738;2024-01-30T04:01:07;3.20;77.70
74294;DHT22;64044;59.904;10.738;2024-01-30T04:03:33;3.20;77.70
74294;DHT22;64044;59.904;10.738;2024-01-30T04:05:58;3.20;77.80
74294;DHT22;64044;59.904;10.738;2024-01-30T04:08:24;3.20;77.70
74294;DHT22;64044;59.904;10.738;2024-01-30T04:10:50;3.20;77.80
74294;DHT22;64044;59.904;10.738;2024-01-30T04:13:16;3.20;77.80
74294;DHT22;64044;59.904;10.738;2024-01-30T04:15:42;3.20;77.80
74294;DHT22;64044;59.904;10.738;2024-01-30T04:18:07;3.20;77.80
74294;DHT22;64044;59.904;10.738;2024-01-30T04:20:33;3.20;77.80
74294;DHT22;64044;59.904;10.738;2024-01-30T04:22:59;3.20;77.80
74294;DHT22;64044;59.904;10.738;2024-01-30T04:25:25;3.20;77.80
74294;DHT22;64044;59.904;10.738;2024-01-30T04:27:50;3.20;77.80
74294;DHT22;64044;59.904;10.738;2024-01-30T04:30:16;3.20;77.70
74294;DHT22;64044;59.904;10.738;2024-01-30T04:32:43;3.20;77.80
74294;DHT22;64044;59.904;10.738;2024-01-30T04:35:09;3.30;77.80
74294;DHT22;64044;59.904;10.738;2024-01-30T04:37:35;3.20;77.80
74294;DHT22;64044;59.904;10.738;2024-01-30T04:40:00;3.30;77.80
74294;DHT22;64044;59.904;10.738;2024-01-30T04:42:26;3.30;77.80
74294;DHT22;64044;59.904;10.738;2024-01-30T04:44:52;3.30;77.80
74294;DHT22;64044;59.904;10.738;2024-01-30T04:47:18;3.30;77.80
74294;DHT22;64044;59.904;10.738;2024-01-30T04:49:43;3.30;77.80
74294;DHT22;64044;59.904;10.738;2024-01-30T04:52:09;3.30;77.80
74294;DHT22;64044;59.904;10.738;2024-01-30T04:54:35;3.30;77.80
74294;DHT22;64044;59.904;10.738;2024-01-30T04:57:02;3.30;77.70
74294;DHT22;64044;59.904;10.738;2024-01-30T04:59:28;3.30;77.70
74294;DHT22;64044;59.904;10.738;2024-01-30T05:01:54;3.30;77.60
74294;DHT22;64044;59.904;10.738;2024-01-30T05:04:20;3.30;77.50
74294;DHT22;64044;59.904;10.738;2024-01-30T05:06:46;3.30;77.50
74294;DHT22;64044;59.904;10.738;2024-01-30T05:09:12;3.30;77.50
74294;DHT22;64044;59.904;10.738;2024-01-30T05:11:41;3.20;77.50
74294;DHT22;64044;59.904;10.738;2024-01-30T05:14:07;3.20;77.50
74294;DHT22;64044;59.904;10.738;2024-01-30T05:16:33;3.20;77.60
74294;DHT22;64044;59.904;10.738;2024-01-30T05:18:59;3.30;77.70
74294;DHT22;64044;59.904;10.738;2024-01-30T05:21:25;3.20;77.70
74294;DHT22;64044;59.904;10.738;2024-01-30T05:24:16;3.20;77.70
74294;DHT22;64044;59.904;10.738;2024-01-30T05:26:42;3.20;78.00
74294;DHT22;64044;59.904;10.738;2024-01-30T05:29:08;3.20;77.80
74294;DHT22;64044;59.904;10.738;2024-01-30T05:31:34;3.20;77.80
74294;DHT22;64044;59.904;10.738;2024-01-30T05:34:00;3.20;77.80
74294;DHT22;64044;59.904;10.738;2024-01-30T05:36:26;3.20;77.80
74294;DHT22;64044;59.904;10.738;2024-01-30T05:38:51;3.30;78.00
74294;DHT22;64044;59.904;10.738;2024-01-30T05:41:17;3.20;77.90
74294;DHT22;64044;59.904;10.738;2024-01-30T05:43:43;3.20;77.80
74294;DHT22;64044;59.904;10.738;2024-01-30T05:46:08;3.30;77.90
74294;DHT22;64044;59.904;10.738;2024-01-30T05:48:34;3.30;77.90
74294;DHT22;64044;59.904;10.738;2024-01-30T05:51:01;3.30;77.90
74294;DHT22;64044;59.904;10.738;2024-01-30T05:53:27;3.30;77.90
74294;DHT22;64044;59.904;10.738;2024-01-30T05:55:53;3.30;77.80
74294;DHT22;64044;59.904;10.738;2024-01-30T05:58:19;3.30;77.80
74294;DHT22;64044;59.904;10.738;2024-01-30T06:00:48;3.30;77.90
74294;DHT22;64044;59.904;10.738;2024-01-30T06:03:13;3.30;77.80
74294;DHT22;64044;59.904;10.738;2024-01-30T06:05:39;3.30;77.90
74294;DHT22;64044;59.904;10.738;2024-01-30T06:08:05;3.30;77.90
74294;DHT22;64044;59.904;10.738;2024-01-30T06:10:31;3.30;78.00
74294;DHT22;64044;59.904;10.738;2024-01-30T06:12:57;3.30;78.00
74294;DHT22;64044;59.904;10.738;2024-01-30T06:15:22;3.30;78.00
74294;DHT22;64044;59.904;10.738;2024-01-30T06:17:48;3.40;78.00
74294;DHT22;64044;59.904;10.738;2024-01-30T06:20:14;3.40;78.00
74294;DHT22;64044;59.904;10.738;2024-01-30T06:22:39;3.40;78.00
74294;DHT22;64044;59.904;10.738;2024-01-30T06:25:05;3.40;77.90
74294;DHT22;64044;59.904;10.738;2024-01-30T06:27:31;3.40;77.90
74294;DHT22;64044;59.904;10.738;2024-01-30T06:29:57;3.40;77.90
74294;DHT22;64044;59.904;10.738;2024-01-30T06:32:23;3.50;77.90
74294;DHT22;64044;59.904;10.738;2024-01-30T06:34:48;3.40;77.70
74294;DHT22;64044;59.904;10.738;2024-01-30T06:37:14;3.40;77.60
74294;DHT22;64044;59.904;10.738;2024-01-30T06:39:40;3.50;78.30
74294;DHT22;64044;59.904;10.738;2024-01-30T06:42:06;3.50;77.40
74294;DHT22;64044;59.904;10.738;2024-01-30T06:44:31;3.50;77.30
74294;DHT22;64044;59.904;10.738;2024-01-30T06:46:57;3.50;77.20
74294;DHT22;64044;59.904;10.738;2024-01-30T06:49:23;3.50;77.10
74294;DHT22;64044;59.904;10.738;2024-01-30T06:51:48;3.50;77.00
74294;DHT22;64044;59.904;10.738;2024-01-30T06:54:14;3.50;76.90
74294;DHT22;64044;59.904;10.738;2024-01-30T06:56:40;3.60;76.90
74294;DHT22;64044;59.904;10.738;2024-01-30T06:59:06;3.60;77.60
74294;DHT22;64044;59.904;10.738;2024-01-30T07:01:32;3.60;76.70
74294;DHT22;64044;59.904;10.738;2024-01-30T07:03:58;3.70;76.60
74294;DHT22;64044;59.904;10.738;2024-01-30T07:06:24;3.70;76.50
74294;DHT22;64044;59.904;10.738;2024-01-30T07:08:50;3.70;76.20
74294;DHT22;64044;59.904;10.738;2024-01-30T07:11:19;3.80;76.20
74294;DHT22;64044;59.904;10.738;2024-01-30T07:13:47;3.80;76.60
74294;DHT22;64044;59.904;10.738;2024-01-30T07:16:14;3.80;75.70
74294;DHT22;64044;59.904;10.738;2024-01-30T07:18:39;3.90;75.70
74294;DHT22;64044;59.904;10.738;2024-01-30T07:21:05;3.90;75.40
74294;DHT22;64044;59.904;10.738;2024-01-30T07:23:31;4.00;75.20
74294;DHT22;64044;59.904;10.738;2024-01-30T07:25:57;4.00;75.10
74294;DHT22;64044;59.904;10.738;2024-01-30T07:28:23;4.00;74.80
74294;DHT22;64044;59.904;10.738;2024-01-30T07:30:49;4.00;75.00
74294;DHT22;64044;59.904;10.738;2024-01-30T07:33:16;4.10;74.70
74294;DHT22;64044;59.904;10.738;2024-01-30T07:35:41;4.10;75.40
74294;DHT22;64044;59.904;10.738;2024-01-30T07:38:07;4.10;74.60
74294;DHT22;64044;59.904;10.738;2024-01-30T07:40:33;4.10;74.60
74294;DHT22;64044;59.904;10.738;2024-01-30T07:42:59;4.10;74.50
74294;DHT22;64044;59.904;10.738;2024-01-30T07:45:25;4.20;74.30
74294;DHT22;64044;59.904;10.738;2024-01-30T07:47:53;4.20;74.30
74294;DHT22;64044;59.904;10.738;2024-01-30T07:50:18;4.20;74.10
74294;DHT22;64044;59.904;10.738;2024-01-30T07:52:44;4.20;74.00
74294;DHT22;64044;59.904;10.738;2024-01-30T07:55:10;4.30;74.10
74294;DHT22;64044;59.904;10.738;2024-01-30T07:57:38;4.30;74.00
74294;DHT22;64044;59.904;10.738;2024-01-30T08:00:05;4.30;74.10
74294;DHT22;64044;59.904;10.738;2024-01-30T08:02:33;4.20;73.70
74294;DHT22;64044;59.904;10.738;2024-01-30T08:04:58;4.30;73.70
74294;DHT22;64044;59.904;10.738;2024-01-30T08:07:24;4.30;73.70
74294;DHT22;64044;59.904;10.738;2024-01-30T08:09:50;4.30;73.70
74294;DHT22;64044;59.904;10.738;2024-01-30T08:12:16;4.30;73.80
74294;DHT22;64044;59.904;10.738;2024-01-30T08:14:41;4.30;73.80
74294;DHT22;64044;59.904;10.738;2024-01-30T08:17:07;4.30;73.70
74294;DHT22;64044;59.904;10.738;2024-01-30T08:19:33;4.30;73.80
74294;DHT22;64044;59.904;10.738;2024-01-30T08:21:59;4.30;73.90
74294;DHT22;64044;59.904;10.738;2024-01-30T08:24:25;4.30;73.50
74294;DHT22;64044;59.904;10.738;2024-01-30T08:26:51;4.40;73.50
74294;DHT22;64044;59.904;10.738;2024-01-30T08:29:16;4.40;73.30
74294;DHT22;64044;59.904;10.738;2024-01-30T08:31:42;4.50;73.30
74294;DHT22;64044;59.904;10.738;2024-01-30T08:34:08;4.40;73.00
74294;DHT22;64044;59.904;10.738;2024-01-30T08:36:34;4.50;72.60
74294;DHT22;64044;59.904;10.738;2024-01-30T08:39:00;4.50;72.90
74294;DHT22;64044;59.904;10.738;2024-01-30T08:41:25;4.50;72.60
74294;DHT22;64044;59.904;10.738;2024-01-30T08:43:52;4.50;72.50
74294;DHT22;64044;59.904;10.738;2024-01-30T08:46:18;4.50;72.20
74294;DHT22;64044;59.904;10.738;2024-01-30T08:48:44;4.50;72.70
74294;DHT22;64044;59.904;10.738;2024-01-30T08:51:10;4.60;71.90
74294;DHT22;64044;59.904;10.738;2024-01-30T08:53:36;4.60;71.80
74294;DHT22;64044;59.904;10.738;2024-01-30T08:56:03;4.60;71.80
74294;DHT22;64044;59.904;10.738;2024-01-30T08:58:29;4.60;72.00
74294;DHT22;64044;59.904;10.738;2024-01-30T09:00:55;4.60;72.10
74294;DHT22;64044;59.904;10.738;2024-01-30T09:03:21;4.60;72.20
74294;DHT22;64044;59.904;10.738;2024-01-30T09:05:46;4.60;72.30
74294;DHT22;64044;59.904;10.738;2024-01-30T09:08:12;4.60;71.70
74294;DHT22;64044;59.904;10.738;2024-01-30T09:10:38;4.70;71.70
74294;DHT22;64044;59.904;10.738;2024-01-30T09:13:04;4.60;72.50
74294;DHT22;64044;59.904;10.738;2024-01-30T09:15:29;4.60;71.70
74294;DHT22;64044;59.904;10.738;2024-01-30T09:17:55;4.60;71.90
74294;DHT22;64044;59.904;10.738;2024-01-30T09:20:21;4.70;72.20
74294;DHT22;64044;59.904;10.738;2024-01-30T09:22:48;4.70;72.30
74294;DHT22;64044;59.904;10.738;2024-01-30T09:25:14;4.70;72.30
74294;DHT22;64044;59.904;10.738;2024-01-30T09:27:40;4.70;72.30
74294;DHT22;64044;59.904;10.738;2024-01-30T09:30:06;4.70;72.40
74294;DHT22;64044;59.904;10.738;2024-01-30T09:32:32;4.70;72.40
74294;DHT22;64044;59.904;10.738;2024-01-30T09:34:58;4.70;72.50
74294;DHT22;64044;59.904;10.738;2024-01-30T09:37:24;4.70;72.50
74294;DHT22;64044;59.904;10.738;2024-01-30T09:39:50;4.70;72.50
74294;DHT22;64044;59.904;10.738;2024-01-30T09:42:28;4.70;72.50
74294;DHT22;64044;59.904;10.738;2024-01-30T09:44:58;4.70;72.50
74294;DHT22;64044;59.904;10.738;2024-01-30T09:47:24;4.70;72.70
74294;DHT22;64044;59.904;10.738;2024-01-30T09:49:51;4.70;72.70
74294;DHT22;64044;59.904;10.738;2024-01-30T09:52:16;4.70;72.70
74294;DHT22;64044;59.904;10.738;2024-01-30T09:54:45;4.70;72.60
74294;DHT22;64044;59.904;10.738;2024-01-30T09:57:11;4.70;72.60
74294;DHT22;64044;59.904;10.738;2024-01-30T09:59:37;4.70;72.70
74294;DHT22;64044;59.904;10.738;2024-01-30T10:02:03;4.70;72.80
74294;DHT22;64044;59.904;10.738;2024-01-30T10:04:30;4.80;72.70
74294;DHT22;64044;59.904;10.738;2024-01-30T10:06:56;4.80;72.40
74294;DHT22;64044;59.904;10.738;2024-01-30T10:09:24;4.80;72.00
74294;DHT22;64044;59.904;10.738;2024-01-30T10:11:51;4.80;71.70
74294;DHT22;64044;59.904;10.738;2024-01-30T10:14:17;4.90;71.50
74294;DHT22;64044;59.904;10.738;2024-01-30T10:16:42;4.90;71.40
74294;DHT22;64044;59.904;10.738;2024-01-30T10:19:10;4.90;71.30
74294;DHT22;64044;59.904;10.738;2024-01-30T10:21:36;5.00;71.30
74294;DHT22;64044;59.904;10.738;2024-01-30T10:24:02;5.00;71.20
74294;DHT22;64044;59.904;10.738;2024-01-30T10:26:28;5.00;71.10
74294;DHT22;64044;59.904;10.738;2024-01-30T10:28:55;5.10;71.10
74294;DHT22;64044;59.904;10.738;2024-01-30T10:31:20;5.10;71.00
74294;DHT22;64044;59.904;10.738;2024-01-30T10:33:46;5.10;71.00
74294;DHT22;64044;59.904;10.738;2024-01-30T10:36:40;5.10;70.90
74294;DHT22;64044;59.904;10.738;2024-01-30T10:39:09;5.20;70.80
74294;DHT22;64044;59.904;10.738;2024-01-30T10:41:43;5.10;70.70
74294;DHT22;64044;59.904;10.738;2024-01-30T10:44:12;5.10;70.70
74294;DHT22;64044;59.904;10.738;2024-01-30T10:46:41;5.10;70.80
74294;DHT22;64044;59.904;10.738;2024-01-30T10:49:09;5.10;70.90
74294;DHT22;64044;59.904;10.738;2024-01-30T10:51:37;5.10;70.80
74294;DHT22;64044;59.904;10.738;2024-01-30T10:54:05;5.10;70.90
74294;DHT22;64044;59.904;10.738;2024-01-30T10:56:32;5.10;71.00
74294;DHT22;64044;59.904;10.738;2024-01-30T10:58:59;5.10;71.10
74294;DHT22;64044;59.904;10.738;2024-01-30T11:01:26;5.10;71.20
74294;DHT22;64044;59.904;10.738;2024-01-30T11:03:54;5.10;71.40
74294;DHT22;64044;59.904;10.738;2024-01-30T11:06:24;5.00;71.50
74294;DHT22;64044;59.904;10.738;2024-01-30T11:09:03;5.00;71.50
74294;DHT22;64044;59.904;10.738;2024-01-30T11:11:59;5.00;71.70
74294;DHT22;64044;59.904;10.738;2024-01-30T11:14:30;5.00;71.70
74294;DHT22;64044;59.904;10.738;2024-01-30T11:16:59;5.00;71.80
74294;DHT22;64044;59.904;10.738;2024-01-30T11:19:31;5.00;71.80
74294;DHT22;64044;59.904;10.738;2024-01-30T11:21:57;5.00;72.00
74294;DHT22;64044;59.904;10.738;2024-01-30T11:24:24;5.00;72.10
74294;DHT22;64044;59.904;10.738;2024-01-30T11:26:55;4.90;72.20
74294;DHT22;64044;59.904;10.738;2024-01-30T11:29:25;5.00;72.40
74294;DHT22;64044;59.904;10.738;2024-01-30T11:31:55;4.90;72.40
74294;DHT22;64044;59.904;10.738;2024-01-30T11:34:21;4.90;72.50
74294;DHT22;64044;59.904;10.738;2024-01-30T11:37:04;4.90;72.60
74294;DHT22;64044;59.904;10.738;2024-01-30T11:39:31;4.90;72.70
74294;DHT22;64044;59.904;10.738;2024-01-30T11:41:59;4.80;72.70
74294;DHT22;64044;59.904;10.738;2024-01-30T11:44:25;4.80;72.70
74294;DHT22;64044;59.904;10.738;2024-01-30T11:46:51;4.80;72.80
74294;DHT22;64044;59.904;10.738;2024-01-30T11:49:18;4.80;72.90
74294;DHT22;64044;59.904;10.738;2024-01-30T11:51:47;4.80;73.00
74294;DHT22;64044;59.904;10.738;2024-01-30T11:54:18;4.80;73.20
74294;DHT22;64044;59.904;10.738;2024-01-30T11:56:44;4.80;73.20
74294;DHT22;64044;59.904;10.738;2024-01-30T11:59:10;4.80;73.30
74294;DHT22;64044;59.904;10.738;2024-01-30T12:01:36;4.80;73.40
74294;DHT22;64044;59.904;10.738;2024-01-30T12:04:01;4.80;73.50
74294;DHT22;64044;59.904;10.738;2024-01-30T12:06:28;4.80;73.50
74294;DHT22;64044;59.904;10.738;2024-01-30T12:09:02;4.80;73.60
74294;DHT22;64044;59.904;10.738;2024-01-30T12:11:31;4.80;73.90
74294;DHT22;64044;59.904;10.738;2024-01-30T12:13:57;4.80;73.70
74294;DHT22;64044;59.904;10.738;2024-01-30T12:16:23;4.80;73.70
74294;DHT22;64044;59.904;10.738;2024-01-30T12:18:49;4.80;73.80
74294;DHT22;64044;59.904;10.738;2024-01-30T12:21:17;4.80;73.90
74294;DHT22;64044;59.904;10.738;2024-01-30T12:23:44;4.80;74.80
74294;DHT22;64044;59.904;10.738;2024-01-30T12:26:11;4.80;74.10
74294;DHT22;64044;59.904;10.738;2024-01-30T12:28:47;4.80;74.10
74294;DHT22;64044;59.904;10.738;2024-01-30T12:31:13;4.80;74.20
74294;DHT22;64044;59.904;10.738;2024-01-30T12:33:39;4.80;74.10
74294;DHT22;64044;59.904;10.738;2024-01-30T12:36:05;4.80;74.20
74294;DHT22;64044;59.904;10.738;2024-01-30T12:38:31;4.80;74.20
74294;DHT22;64044;59.904;10.738;2024-01-30T12:40:57;4.80;74.20
74294;DHT22;64044;59.904;10.738;2024-01-30T12:43:26;4.90;74.30
74294;DHT22;64044;59.904;10.738;2024-01-30T12:45:53;4.90;74.40
74294;DHT22;64044;59.904;10.738;2024-01-30T12:48:19;4.80;75.10
74294;DHT22;64044;59.904;10.738;2024-01-30T12:50:45;4.90;74.50
74294;DHT22;64044;59.904;10.738;2024-01-30T12:53:10;4.90;74.40
74294;DHT22;64044;59.904;10.738;2024-01-30T12:55:38;4.90;74.40
74294;DHT22;64044;59.904;10.738;2024-01-30T12:58:04;4.90;74.40
74294;DHT22;64044;59.904;10.738;2024-01-30T13:00:29;4.90;74.40
74294;DHT22;64044;59.904;10.738;2024-01-30T13:02:55;4.90;74.40
74294;DHT22;64044;59.904;10.738;2024-01-30T13:05:21;4.90;74.40
74294;DHT22;64044;59.904;10.738;2024-01-30T13:07:47;4.90;74.40
74294;DHT22;64044;59.904;10.738;2024-01-30T13:10:13;4.90;74.40
74294;DHT22;64044;59.904;10.738;2024-01-30T13:12:39;4.90;74.40
74294;DHT22;64044;59.904;10.738;2024-01-30T13:15:05;4.90;74.30
74294;DHT22;64044;59.904;10.738;2024-01-30T13:17:31;4.90;74.20
74294;DHT22;64044;59.904;10.738;2024-01-30T13:19:57;4.90;74.20
74294;DHT22;64044;59.904;10.738;2024-01-30T13:22:24;4.90;74.30
74294;DHT22;64044;59.904;10.738;2024-01-30T13:24:50;4.90;74.30
74294;DHT22;64044;59.904;10.738;2024-01-30T13:27:16;4.80;74.30
74294;DHT22;64044;59.904;10.738;2024-01-30T13:29:42;4.80;74.40
74294;DHT22;64044;59.904;10.738;2024-01-30T13:32:07;4.80;74.40
74294;DHT22;64044;59.904;10.738;2024-01-30T13:34:33;4.80;74.40
74294;DHT22;64044;59.904;10.738;2024-01-30T13:36:59;4.80;74.40
74294;DHT22;64044;59.904;10.738;2024-01-30T13:39:25;4.80;74.30
74294;DHT22;64044;59.904;10.738;2024-01-30T13:41:51;4.80;74.30
74294;DHT22;64044;59.904;10.738;2024-01-30T13:44:16;4.80;74.30
74294;DHT22;64044;59.904;10.738;2024-01-30T13:46:43;4.80;74.20
74294;DHT22;64044;59.904;10.738;2024-01-30T13:49:09;4.80;74.00
74294;DHT22;64044;59.904;10.738;2024-01-30T13:51:34;4.80;74.00
74294;DHT22;64044;59.904;10.738;2024-01-30T13:54:00;4.80;74.00
74294;DHT22;64044;59.904;10.738;2024-01-30T13:56:26;4.80;74.00
74294;DHT22;64044;59.904;10.738;2024-01-30T13:58:52;4.80;74.00
74294;DHT22;64044;59.904;10.738;2024-01-30T14:01:18;4.80;74.00
74294;DHT22;64044;59.904;10.738;2024-01-30T14:03:45;4.70;73.90
74294;DHT22;64044;59.904;10.738;2024-01-30T14:06:11;4.70;74.00
74294;DHT22;64044;59.904;10.738;2024-01-30T14:08:37;4.70;74.00
74294;DHT22;64044;59.904;10.738;2024-01-30T14:11:03;4.70;74.10
74294;DHT22;64044;59.904;10.738;2024-01-30T14:13:29;4.70;74.20
74294;DHT22;64044;59.904;10.738;2024-01-30T14:15:56;4.60;74.10
74294;DHT22;64044;59.904;10.738;2024-01-30T14:18:22;4.60;74.10
74294;DHT22;64044;59.904;10.738;2024-01-30T14:20:48;4.60;74.10
74294;DHT22;64044;59.904;10.738;2024-01-30T14:23:14;4.60;74.20
74294;DHT22;64044;59.904;10.738;2024-01-30T14:25:40;4.50;74.30
74294;DHT22;64044;59.904;10.738;2024-01-30T14:28:06;4.50;74.50
74294;DHT22;64044;59.904;10.738;2024-01-30T14:30:31;4.50;74.50
74294;DHT22;64044;59.904;10.738;2024-01-30T14:32:57;4.50;74.50
74294;DHT22;64044;59.904;10.738;2024-01-30T14:35:23;4.50;74.50
74294;DHT22;64044;59.904;10.738;2024-01-30T14:37:49;4.50;74.50
74294;DHT22;64044;59.904;10.738;2024-01-30T14:40:15;4.50;74.50
74294;DHT22;64044;59.904;10.738;2024-01-30T14:42:40;4.50;74.60
74294;DHT22;64044;59.904;10.738;2024-01-30T14:45:06;4.50;74.60
74294;DHT22;64044;59.904;10.738;2024-01-30T14:47:33;4.50;74.70
74294;DHT22;64044;59.904;10.738;2024-01-30T14:49:58;4.50;74.70
74294;DHT22;64044;59.904;10.738;2024-01-30T14:52:24;4.50;74.60
74294;DHT22;64044;59.904;10.738;2024-01-30T14:54:50;4.50;74.60
74294;DHT22;64044;59.904;10.738;2024-01-30T14:57:16;4.50;74.60
74294;DHT22;64044;59.904;10.738;2024-01-30T14:59:42;4.50;74.60
74294;DHT22;64044;59.904;10.738;2024-01-30T15:02:08;4.50;74.60
74294;DHT22;64044;59.904;10.738;2024-01-30T15:04:34;4.50;74.50
74294;DHT22;64044;59.904;10.738;2024-01-30T15:07:01;4.50;74.60
74294;DHT22;64044;59.904;10.738;2024-01-30T15:09:27;4.50;74.50
74294;DHT22;64044;59.904;10.738;2024-01-30T15:11:52;4.50;74.60
74294;DHT22;64044;59.904;10.738;2024-01-30T15:14:18;4.50;74.60
74294;DHT22;64044;59.904;10.738;2024-01-30T15:16:45;4.50;74.50
74294;DHT22;64044;59.904;10.738;2024-01-30T15:19:10;4.50;74.60
74294;DHT22;64044;59.904;10.738;2024-01-30T15:21:36;4.50;74.60
74294;DHT22;64044;59.904;10.738;2024-01-30T15:24:02;4.50;74.50
74294;DHT22;64044;59.904;10.738;2024-01-30T15:26:28;4.40;74.50